• Join FlightAware (Why Join?)
  • Login
  • US Flag 
09:37PM EDT


 

Airport Tracker/Info


-or-


 

Live Flight TrackerFlight Track Log ✈ UAL33 ✈ 22-Aug-2013 ✈ RJAA / NRT - KLAX

Flight Track Log - Related Links

Times and Time Zones

All times are in EDT time to prevent confusion due to time zone crossing. See the UAL33 flight status page for this flight to view local times or setup timezone preferences in your user account.

Time Position Orientation Groundspeed Altitude Reporting Facility
EDT Latitude Longitude Course Direction KTS MPH feet Rate Location/Type
05:20AM 35.7380 140.3940 148° Southeast 171 197 1,400  Level FlightAware
05:21AM 35.7240 140.4050 147° Southeast 173 199 2,200 2,220 Climbing FlightAware
05:21AM 35.7160 140.4110 149° Southeast 174 200 2,600 1,860 Climbing FlightAware
05:21AM 35.6970 140.4240 151° Southeast 182 209 3,400 1,380 Climbing FlightAware
05:22AM 35.6820 140.4350 149° Southeast 211 243 3,700 900 Climbing FlightAware
05:22AM 35.6630 140.4490 149° Southeast 240 276 4,000 1,020 Climbing FlightAware
05:22AM 35.6430 140.4630 150° Southeast 266 306 4,400 1,800 Climbing FlightAware
05:23AM 35.6200 140.4790 151° Southeast 276 318 5,200 2,520 Climbing FlightAware
05:23AM 35.5960 140.4970 149° Southeast 280 322 6,200 2,520 Climbing FlightAware
05:23AM 35.5740 140.5130 149° Southeast 284 327 7,000 2,400 Climbing FlightAware
05:24AM 35.5610 140.5240 145° Southeast 289 333 7,500 2,100 Climbing FlightAware
05:24AM 35.5540 140.5330 134° Southeast 295 339 7,700 1,980 Climbing FlightAware
05:24AM 35.5470 140.5490 118° Southeast 300 345 8,100 2,280 Climbing FlightAware
05:24AM 35.5450 140.5620 101° East 302 348 8,400 1,920 Climbing FlightAware
05:24AM 35.5410 140.5980 98° East 309 356 9,000 1,020 Climbing FlightAware
05:25AM 35.5380 140.6320 96° East 312 359 9,100 120 Climbing FlightAware
05:25AM 35.5350 140.6680 96° East 312 359 9,100  Level FlightAware
05:25AM 35.5320 140.7030 96° East 312 359 9,100  Level FlightAware
05:26AM 35.5280 140.7430 97° East 312 359 9,100  Level FlightAware
05:26AM 35.5240 140.7780 98° East 313 360 9,100 300 Level FlightAware
05:26AM 35.5210 140.8090 97° East 315 362 9,300 1,680 Climbing FlightAware
05:27AM 35.5150 140.8640 98° East 323 372 10,500 1,620 Climbing FlightAware
05:27AM 35.5090 140.9310 96° East 361 415 11,100 1,440 Climbing FlightAware
05:28AM 35.5020 141.0010 97° East 378 435 12,200 1,740 Climbing FlightAware
05:29AM 35.4940 141.0750 98° East 395 455 13,200 1,500 Climbing FlightAware
05:29AM 35.4750 141.1530 107° East 402 463 14,000 1,560 Climbing FlightAware
05:30AM 35.4400 141.2680 110° East 436 502 15,400 1,440 Climbing FlightAware
05:31AM 35.4160 141.3460 111° Southeast 462 532 16,000 1,320 Climbing FlightAware
05:31AM 35.3890 141.4360 110° East 469 540 17,000 1,560 Climbing FlightAware
05:32AM 35.3600 141.5290 111° Southeast 480 552 17,900 1,620 Climbing FlightAware
05:32AM 35.3330 141.6160 111° Southeast 486 559 18,900 1,680 Climbing FlightAware
05:33AM 35.3050 141.7060 111° Southeast 491 565 19,900 1,500 Climbing FlightAware
05:34AM 35.2790 141.8000 109° East 501 577 20,700 1,380 Climbing FlightAware
05:34AM 35.2720 141.8460 101° East 501 577 21,100 1,440 Climbing FlightAware
05:34AM 35.2800 141.9430 84° East 501 577 21,900 1,260 Climbing FlightAware
05:35AM 35.3150 142.0330 64° Northeast 499 574 22,700 1,140 Climbing FlightAware
05:36AM 35.3710 142.1330 56° Northeast 508 585 23,500 1,200 Climbing FlightAware
05:36AM 35.4300 142.2390 56° Northeast 512 589 24,400 1,200 Climbing FlightAware
05:37AM 35.4730 142.3150 55° Northeast 517 595 25,100 1,260 Climbing FlightAware
05:38AM 35.5170 142.4170 62° Northeast 526 605 25,900 1,260 Climbing FlightAware
05:38AM 35.5410 142.5150 73° East 530 610 26,600 1,080 Climbing FlightAware
05:39AM 35.5690 142.6430 75° East 536 617 27,400 960 Climbing FlightAware
05:40AM 35.5930 142.7570 75° East 540 621 28,000 1,440 Climbing FlightAware
05:40AM 35.6160 142.8630 75° East 535 616 29,100 1,560 Climbing FlightAware
05:41AM 35.6370 142.9620 75° East 529 609 29,900 840 Climbing FlightAware
05:41AM 35.6610 143.0710 75° East 529 609 30,200 1,380 Climbing FlightAware
05:42AM 35.6850 143.1880 76° East 523 602 31,700 1,860 Climbing FlightAware
05:43AM 35.7090 143.3000 75° East 522 601 32,500 900 Climbing FlightAware
05:43AM 35.7340 143.4200 76° East 523 602 33,000 360 Climbing FlightAware
05:44AM 35.7560 143.5250 75° East 528 608 33,000  Level FlightAware
05:45AM 35.7780 143.6300 75° East 527 606 33,000  Level FlightAware
05:45AM 35.7990 143.7330 76° East 527 606 33,000  Level FlightAware
05:46AM 35.8260 143.8650 76° East 528 608 33,000  Level FlightAware
05:46AM 35.8470 143.9680 76° East 529 609 33,000  Level FlightAware
05:47AM 35.8670 144.0640 76° East 530 610 33,000  Level FlightAware
05:48AM 35.8920 144.1870 76° East 530 610 33,000  Level FlightAware
05:48AM 35.9070 144.2650 77° East 530 610 33,000  Level FlightAware
05:49AM 35.9250 144.3500 75° East 530 610 33,000  Level FlightAware
05:49AM 35.9430 144.4400 76° East 530 610 33,000  Level FlightAware
05:50AM 35.9610 144.5300 76° East 530 610 33,000  Level FlightAware
05:51AM 35.9910 144.6830 76° East 523 602 33,000  Level FlightAware
05:51AM 36.0110 144.7840 76° East 525 604 33,000  Level FlightAware
05:52AM 36.0300 144.8850 77° East 526 605 33,000  Level FlightAware
05:52AM 36.0460 144.9750 78° East 526 605 33,000  Level FlightAware
05:53AM 36.0630 145.0650 77° East 526 605 33,000  Level FlightAware
05:54AM 36.0800 145.1540 77° East 526 605 33,000  Level FlightAware
05:54AM 36.0970 145.2440 77° East 526 605 33,000  Level FlightAware
05:55AM 36.1140 145.3360 77° East 526 605 33,000  Level FlightAware
05:55AM 36.1310 145.4260 77° East 526 605 33,000  Level FlightAware
05:56AM 36.1480 145.5190 77° East 526 605 33,000  Level FlightAware
05:57AM 36.1640 145.6090 78° East 526 605 33,000  Level FlightAware
05:57AM 36.2860 145.7780 48° Northeast 33,000  Level FlightAware
06:00AM 36.5319 146.0762 44° Northeast  Level FlightAware Approximate
06:01AM 36.6320 146.1984 44° Northeast  Level FlightAware Approximate
06:02AM 36.7202 146.3369 52° Northeast  Level FlightAware Approximate
06:03AM 36.8070 146.4744 52° Northeast  Level FlightAware Approximate
06:04AM 36.8937 146.6122 52° Northeast  Level FlightAware Approximate
06:05AM 36.9802 146.7502 52° Northeast  Level FlightAware Approximate
06:06AM 37.0665 146.8887 52° Northeast  Level FlightAware Approximate
06:07AM 37.1527 147.0274 52° Northeast  Level FlightAware Approximate
06:08AM 37.2388 147.1664 52° Northeast  Level FlightAware Approximate
06:09AM 37.3246 147.3057 52° Northeast  Level FlightAware Approximate
06:10AM 37.4103 147.4454 52° Northeast  Level FlightAware Approximate
06:11AM 37.4959 147.5854 52° Northeast  Level FlightAware Approximate
06:12AM 37.5813 147.7257 52° Northeast  Level FlightAware Approximate
06:13AM 37.6665 147.8663 53° Northeast  Level FlightAware Approximate
06:14AM 37.7174 148.0314 69° East  Level FlightAware Approximate
06:15AM 37.7680 148.1968 69° East  Level FlightAware Approximate
06:16AM 37.8184 148.3624 69° East  Level FlightAware Approximate
06:17AM 37.8685 148.5283 69° East  Level FlightAware Approximate
06:18AM 37.9185 148.6943 69° East  Level FlightAware Approximate
06:19AM 37.9682 148.8606 69° East  Level FlightAware Approximate
06:20AM 38.0176 149.0271 69° East  Level FlightAware Approximate
06:21AM 38.0668 149.1939 69° East  Level FlightAware Approximate
06:22AM 38.0863 149.3682 88° East  Level FlightAware Approximate
06:23AM 38.0905 149.5463 88° East  Level FlightAware Approximate
06:24AM 38.0944 149.7244 88° East  Level FlightAware Approximate
06:25AM 38.0981 149.9026 88° East  Level FlightAware Approximate
06:26AM 38.1373 150.0653 54° Northeast  Level FlightAware Approximate
06:27AM 38.2196 150.2098 54° Northeast  Level FlightAware Approximate
06:28AM 38.3017 150.3546 54° Northeast  Level FlightAware Approximate
06:29AM 38.3836 150.4998 54° Northeast  Level FlightAware Approximate
06:30AM 38.4653 150.6452 54° Northeast  Level FlightAware Approximate
06:31AM 38.5469 150.7910 54° Northeast  Level FlightAware Approximate
06:32AM 38.6282 150.9371 54° Northeast  Level FlightAware Approximate
06:33AM 38.7094 151.0836 55° Northeast  Level FlightAware Approximate
06:34AM 38.7904 151.2304 55° Northeast  Level FlightAware Approximate
06:35AM 38.8712 151.3775 55° Northeast  Level FlightAware Approximate
06:36AM 38.9519 151.5250 55° Northeast  Level FlightAware Approximate
06:37AM 39.0323 151.6728 55° Northeast  Level FlightAware Approximate
06:38AM 39.1126 151.8209 55° Northeast  Level FlightAware Approximate
06:39AM 39.1926 151.9694 55° Northeast  Level FlightAware Approximate
06:40AM 39.2725 152.1182 55° Northeast  Level FlightAware Approximate
06:41AM 39.3522 152.2673 55° Northeast  Level FlightAware Approximate
06:42AM 39.4317 152.4168 55° Northeast  Level FlightAware Approximate
06:43AM 39.5110 152.5666 56° Northeast  Level FlightAware Approximate
06:44AM 39.5901 152.7168 56° Northeast  Level FlightAware Approximate
06:45AM 39.6691 152.8673 56° Northeast  Level FlightAware Approximate
06:46AM 39.7478 153.0181 56° Northeast  Level FlightAware Approximate
06:47AM 39.8263 153.1693 56° Northeast  Level FlightAware Approximate
06:48AM 39.9047 153.3209 56° Northeast  Level FlightAware Approximate
06:49AM 39.9828 153.4728 56° Northeast  Level FlightAware Approximate
06:50AM 40.0607 153.6250 56° Northeast  Level FlightAware Approximate
06:51AM 40.1385 153.7776 56° Northeast  Level FlightAware Approximate
06:52AM 40.2160 153.9305 56° Northeast  Level FlightAware Approximate
06:53AM 40.2934 154.0838 56° Northeast  Level FlightAware Approximate
06:54AM 40.3705 154.2375 57° Northeast  Level FlightAware Approximate
06:55AM 40.4474 154.3915 57° Northeast  Level FlightAware Approximate
06:56AM 40.5242 154.5458 57° Northeast  Level FlightAware Approximate
06:57AM 40.6007 154.7005 57° Northeast  Level FlightAware Approximate
06:58AM 40.6770 154.8555 57° Northeast  Level FlightAware Approximate
06:59AM 40.7531 155.0109 57° Northeast  Level FlightAware Approximate
07:00AM 40.8290 155.1667 57° Northeast  Level FlightAware Approximate
07:01AM 40.9047 155.3228 57° Northeast  Level FlightAware Approximate
07:02AM 40.9802 155.4793 57° Northeast  Level FlightAware Approximate
07:03AM 41.0554 155.6361 57° Northeast  Level FlightAware Approximate
07:04AM 41.1305 155.7933 58° Northeast  Level FlightAware Approximate
07:05AM 41.2053 155.9509 58° Northeast  Level FlightAware Approximate
07:06AM 41.2799 156.1088 58° Northeast  Level FlightAware Approximate
07:07AM 41.3543 156.2670 58° Northeast  Level FlightAware Approximate
07:08AM 41.4285 156.4257 58° Northeast  Level FlightAware Approximate
07:09AM 41.5025 156.5847 58° Northeast  Level FlightAware Approximate
07:10AM 41.5762 156.7440 58° Northeast  Level FlightAware Approximate
07:11AM 41.6498 156.9037 58° Northeast  Level FlightAware Approximate
07:12AM 41.7231 157.0638 58° Northeast  Level FlightAware Approximate
07:13AM 41.7962 157.2243 59° Northeast  Level FlightAware Approximate
07:14AM 41.8690 157.3851 59° Northeast  Level FlightAware Approximate
07:15AM 41.9417 157.5463 59° Northeast  Level FlightAware Approximate
07:16AM 42.0141 157.7078 59° Northeast  Level FlightAware Approximate
07:17AM 42.0863 157.8697 59° Northeast  Level FlightAware Approximate
07:18AM 42.1582 158.0320 59° Northeast  Level FlightAware Approximate
07:19AM 42.2299 158.1947 59° Northeast  Level FlightAware Approximate
07:20AM 42.3014 158.3577 59° Northeast  Level FlightAware Approximate
07:21AM 42.3727 158.5211 59° Northeast  Level FlightAware Approximate
07:22AM 42.4437 158.6849 60° Northeast  Level FlightAware Approximate
07:23AM 42.5145 158.8490 60° Northeast  Level FlightAware Approximate
07:24AM 42.5851 159.0135 60° Northeast  Level FlightAware Approximate
07:25AM 42.6554 159.1784 60° Northeast  Level FlightAware Approximate
07:26AM 42.7254 159.3434 60° Northeast  Level FlightAware Approximate
07:27AM 42.7951 159.5087 60° Northeast  Level FlightAware Approximate
07:28AM 42.8646 159.6744 60° Northeast  Level FlightAware Approximate
07:29AM 42.9338 159.8405 60° Northeast  Level FlightAware Approximate
07:30AM 43.0031 160.0067 57° Northeast  Level FlightAware Approximate
07:31AM 43.0788 160.1678 57° Northeast  Level FlightAware Approximate
07:32AM 43.1542 160.3294 57° Northeast  Level FlightAware Approximate
07:33AM 43.2294 160.4914 57° Northeast  Level FlightAware Approximate
07:34AM 43.3044 160.6537 58° Northeast  Level FlightAware Approximate
07:35AM 43.3792 160.8165 58° Northeast  Level FlightAware Approximate
07:36AM 43.4537 160.9796 58° Northeast  Level FlightAware Approximate
07:37AM 43.5280 161.1432 58° Northeast  Level FlightAware Approximate
07:38AM 43.6020 161.3071 58° Northeast  Level FlightAware Approximate
07:39AM 43.6758 161.4715 58° Northeast  Level FlightAware Approximate
07:40AM 43.7494 161.6363 58° Northeast  Level FlightAware Approximate
07:41AM 43.8228 161.8015 58° Northeast  Level FlightAware Approximate
07:42AM 43.8959 161.9670 58° Northeast  Level FlightAware Approximate
07:43AM 43.9687 162.1330 59° Northeast  Level FlightAware Approximate
07:44AM 44.0413 162.2994 59° Northeast  Level FlightAware Approximate
07:45AM 44.1137 162.4662 59° Northeast  Level FlightAware Approximate
07:46AM 44.1858 162.6334 59° Northeast  Level FlightAware Approximate
07:47AM 44.2577 162.8010 59° Northeast  Level FlightAware Approximate
07:48AM 44.3294 162.9691 59° Northeast  Level FlightAware Approximate
07:49AM 44.4008 163.1375 59° Northeast  Level FlightAware Approximate
07:50AM 44.4719 163.3064 59° Northeast  Level FlightAware Approximate
07:51AM 44.5429 163.4756 60° Northeast  Level FlightAware Approximate
07:52AM 44.6135 163.6453 60° Northeast  Level FlightAware Approximate
07:53AM 44.6842 163.8151 59° Northeast  Level FlightAware Approximate
07:54AM 44.7550 163.9850 60° Northeast  Level FlightAware Approximate
07:55AM 44.8256 164.1554 60° Northeast  Level FlightAware Approximate
07:56AM 44.8959 164.3262 60° Northeast  Level FlightAware Approximate
07:57AM 44.9660 164.4974 60° Northeast  Level FlightAware Approximate
07:58AM 45.0358 164.6690 60° Northeast  Level FlightAware Approximate
07:58AM 45.6333 166.1500 61° Northeast 546 628 37,000  Level Oakland Oceanic (ODAPS)
07:59AM 45.1054 164.8410 60° Northeast  Level FlightAware Approximate
08:00AM 45.1746 165.0134 60° Northeast  Level FlightAware Approximate
08:01AM 45.2437 165.1863 60° Northeast  Level FlightAware Approximate
08:02AM 45.3124 165.3596 61° Northeast  Level FlightAware Approximate
08:03AM 45.3810 165.5333 61° Northeast  Level FlightAware Approximate
08:04AM 46.0568 167.2848 62° Northeast 546 628 37,000  Level FlightAware Transoceanic
08:05AM 46.1263 167.4756 62° Northeast 546 628 37,000  Level FlightAware Transoceanic
08:06AM 46.1955 167.6669 63° Northeast 546 628 37,000  Level FlightAware Transoceanic
08:07AM 46.2643 167.8587 63° Northeast 546 628 37,000  Level FlightAware Transoceanic
08:08AM 46.3328 168.0509 63° Northeast 546 628 37,000  Level FlightAware Transoceanic
08:09AM 46.4010 168.2437 63° Northeast 546 628 37,000  Level FlightAware Transoceanic
08:10AM 46.4689 168.4369 63° Northeast 546 628 37,000  Level FlightAware Transoceanic
08:11AM 46.5364 168.6306 63° Northeast 546 628 37,000  Level FlightAware Transoceanic
08:12AM 46.6037 168.8248 63° Northeast 546 628 37,000 1,560 Level FlightAware Transoceanic
08:12AM 46.5833 168.7833 63° Northeast 523 602 39,000  Climbing Oakland Oceanic (ODAPS)
08:13AM 46.6706 169.0195 63° Northeast 546 628 37,000 -1,200 Descending FlightAware Transoceanic
08:14AM 46.7371 169.2146 64° Northeast 546 628 37,000  Level FlightAware Transoceanic
08:15AM 46.8033 169.4102 64° Northeast 546 628 37,000  Level FlightAware Transoceanic
08:16AM 46.8692 169.6063 64° Northeast 546 628 37,000  Level FlightAware Transoceanic
08:17AM 46.9348 169.8029 64° Northeast 546 628 37,000 960 Level FlightAware Transoceanic
08:18AM 47.0000 170.0000 70° East 523 602 39,000 1,140 Climbing FlightAware Transoceanic
08:18AM 47.0000 170.0000 70° East 519 597 39,000  Level Oakland Oceanic (ODAPS)
08:19AM 47.0483 170.1921 70° East 523 602 39,000  Level FlightAware Transoceanic
08:20AM 47.0963 170.3845 70° East 523 602 39,000  Level FlightAware Transoceanic
08:21AM 47.1440 170.5772 70° East 523 602 39,000  Level FlightAware Transoceanic
08:22AM 47.1913 170.7703 70° East 523 602 39,000  Level FlightAware Transoceanic
08:23AM 47.2383 170.9638 70° East 523 602 39,000  Level FlightAware Transoceanic
08:24AM 47.2481 171.0041 70° East 519 597 39,000  Level FlightAware Transoceanic
08:25AM 47.2966 171.2061 71° East 519 597 39,000  Level FlightAware Transoceanic
08:26AM 47.3448 171.4084 71° East 519 597 39,000  Level FlightAware Transoceanic
08:26AM 47.3667 171.4833 71° East 515 593 39,000  Level Oakland Oceanic (ODAPS)
08:27AM 47.3926 171.6111 71° East 519 597 39,000  Level FlightAware Transoceanic
08:28AM 47.4401 171.8141 71° East 519 597 39,000  Level FlightAware Transoceanic
08:29AM 47.4872 172.0175 71° East 519 597 39,000  Level FlightAware Transoceanic
08:30AM 47.5340 172.2213 71° East 519 597 39,000  Level FlightAware Transoceanic
08:31AM 47.5804 172.4255 71° East 519 597 39,000  Level FlightAware Transoceanic
08:32AM 47.6444 172.6947 72° East 515 593 39,000  Level FlightAware Transoceanic
08:33AM 47.6895 172.8978 72° East 515 593 39,000  Level FlightAware Transoceanic
08:34AM 47.7342 173.1013 72° East 515 593 39,000  Level FlightAware Transoceanic
08:35AM 47.7785 173.3052 72° East 515 593 39,000  Level FlightAware Transoceanic
08:36AM 47.8225 173.5093 72° East 515 593 39,000  Level FlightAware Transoceanic
08:37AM 47.8661 173.7139 72° East 515 593 39,000  Level FlightAware Transoceanic
08:38AM 47.9093 173.9187 73° East 515 593 39,000  Level FlightAware Transoceanic
08:39AM 47.9522 174.1239 73° East 515 593 39,000  Level FlightAware Transoceanic
08:39AM 47.9667 174.2333 73° East 511 588 39,000  Level Oakland Oceanic (ODAPS)
08:40AM 47.9947 174.3295 73° East 515 593 39,000  Level FlightAware Transoceanic
08:41AM 48.0368 174.5354 73° East 515 593 39,000  Level FlightAware Transoceanic
08:42AM 48.0786 174.7416 73° East 515 593 39,000  Level FlightAware Transoceanic
08:43AM 48.1200 174.9482 73° East 515 593 39,000  Level FlightAware Transoceanic
08:44AM 48.1610 175.1550 74° East 515 593 39,000  Level FlightAware Transoceanic
08:45AM 48.2017 175.3622 74° East 515 593 39,000  Level FlightAware Transoceanic
08:46AM 48.2122 175.4489 74° East 511 588 39,000  Level FlightAware Transoceanic
08:47AM 48.2518 175.6526 74° East 511 588 39,000  Level FlightAware Transoceanic
08:48AM 48.2911 175.8566 74° East 511 588 39,000  Level FlightAware Transoceanic
08:49AM 48.3301 176.0610 74° East 511 588 39,000  Level FlightAware Transoceanic
08:50AM 48.3687 176.2656 74° East 511 588 39,000  Level FlightAware Transoceanic
08:51AM 48.4069 176.4706 74° East 511 588 39,000  Level FlightAware Transoceanic
08:52AM 48.4447 176.6758 75° East 511 588 39,000  Level FlightAware Transoceanic
08:53AM 48.4822 176.8814 75° East 511 588 39,000  Level FlightAware Transoceanic
08:54AM 48.5193 177.0873 75° East 511 588 39,000  Level FlightAware Transoceanic
08:54AM 48.5167 177.0167 75° East 505 581 39,000  Level Oakland Oceanic (ODAPS)
08:55AM 48.5561 177.2934 75° East 511 588 39,000  Level FlightAware Transoceanic
08:56AM 48.5925 177.4999 75° East 511 588 39,000  Level FlightAware Transoceanic
08:57AM 48.6285 177.7067 75° East 511 588 39,000  Level FlightAware Transoceanic
08:58AM 48.6642 177.9137 75° East 511 588 39,000  Level FlightAware Transoceanic
08:59AM 48.6994 178.1211 76° East 511 588 39,000  Level FlightAware Transoceanic
09:00AM 48.7343 178.3287 76° East 511 588 39,000  Level FlightAware Transoceanic
09:01AM 48.7680 178.5012 76° East 505 581 39,000  Level FlightAware Transoceanic
09:02AM 48.8023 178.7144 76° East 505 581 39,000  Level FlightAware Transoceanic
09:03AM 48.8362 178.9280 77° East 505 581 39,000  Level FlightAware Transoceanic
09:04AM 48.8698 179.1418 77° East 505 581 39,000  Level FlightAware Transoceanic
09:05AM 48.9029 179.3559 77° East 505 581 39,000  Level FlightAware Transoceanic
09:06AM 48.9357 179.5703 77° East 505 581 39,000  Level FlightAware Transoceanic
09:07AM 48.9680 179.7850 77° East 505 581 39,000  Level FlightAware Transoceanic
09:07AM 48.9833 179.8333 81° East 508 585 39,000  Level Oakland Oceanic (ODAPS)
09:08AM 49.0000 -180.0000 77° East 505 581 39,000  Level FlightAware Transoceanic
09:08AM 49.0000 180.0000 77° East 508 585 39,000  Level Oakland Oceanic (ODAPS)
09:09AM 49.0295 -179.7964 78° East 505 581 39,000  Level FlightAware Transoceanic
09:10AM 49.0587 -179.5925 78° East 505 581 39,000  Level FlightAware Transoceanic
09:11AM 49.0875 -179.3883 78° East 505 581 39,000  Level FlightAware Transoceanic
09:12AM 49.1159 -179.1840 78° East 505 581 39,000  Level FlightAware Transoceanic
09:13AM 49.1440 -178.9794 78° East 505 581 39,000  Level FlightAware Transoceanic
09:14AM 49.1752 -178.7484 78° East 508 585 39,000  Level FlightAware Transoceanic
09:15AM 49.2031 -178.5389 79° East 508 585 39,000  Level FlightAware Transoceanic
09:16AM 49.2306 -178.3292 79° East 508 585 39,000  Level FlightAware Transoceanic
09:17AM 49.2577 -178.1193 79° East 508 585 39,000  Level FlightAware Transoceanic
09:18AM 49.2845 -177.9092 79° East 508 585 39,000  Level FlightAware Transoceanic
09:19AM 49.3108 -177.6988 79° East 508 585 39,000  Level FlightAware Transoceanic
09:20AM 49.3368 -177.4882 79° East 508 585 39,000  Level FlightAware Transoceanic
09:21AM 49.3624 -177.2774 80° East 508 585 39,000  Level FlightAware Transoceanic
09:22AM 49.3876 -177.0664 80° East 508 585 39,000  Level FlightAware Transoceanic
09:22AM 49.3667 -177.2833 80° East 506 582 39,000  Level Oakland Oceanic (ODAPS)
09:23AM 49.4124 -176.8551 80° East 508 585 39,000  Level FlightAware Transoceanic
09:24AM 49.4369 -176.6436 80° East 508 585 39,000  Level FlightAware Transoceanic
09:25AM 49.4609 -176.4320 80° East 508 585 39,000  Level FlightAware Transoceanic
09:26AM 49.4846 -176.2201 80° East 508 585 39,000  Level FlightAware Transoceanic
09:27AM 49.5079 -176.0080 80° East 508 585 39,000  Level FlightAware Transoceanic
09:28AM 49.5342 -175.8004 81° East 506 582 39,000  Level FlightAware Transoceanic
09:29AM 49.5566 -175.5877 81° East 506 582 39,000  Level FlightAware Transoceanic
09:30AM 49.5786 -175.3748 81° East 506 582 39,000  Level FlightAware Transoceanic
09:31AM 49.6002 -175.1618 81° East 506 582 39,000  Level FlightAware Transoceanic
09:32AM 49.6214 -174.9486 81° East 506 582 39,000  Level FlightAware Transoceanic
09:33AM 49.6423 -174.7352 82° East 506 582 39,000  Level FlightAware Transoceanic
09:34AM 49.6627 -174.5215 82° East 506 582 39,000  Level FlightAware Transoceanic
09:35AM 49.6827 -174.3078 82° East 506 582 39,000  Level FlightAware Transoceanic
09:35AM 49.6833 -174.3500 82° East 501 577 39,000  Level Oakland Oceanic (ODAPS)
09:36AM 49.7024 -174.0938 82° East 506 582 39,000  Level FlightAware Transoceanic
09:37AM 49.7216 -173.8797 82° East 506 582 39,000  Level FlightAware Transoceanic
09:38AM 49.7405 -173.6654 82° East 506 582 39,000  Level FlightAware Transoceanic
09:39AM 49.7589 -173.4510 82° East 506 582 39,000  Level FlightAware Transoceanic
09:40AM 49.7770 -173.2363 83° East 506 582 39,000  Level FlightAware Transoceanic
09:41AM 49.7904 -173.1132 83° East 501 577 39,000  Level FlightAware Transoceanic
09:42AM 49.8069 -172.9065 83° East 501 577 39,000  Level FlightAware Transoceanic
09:43AM 49.8232 -172.6997 83° East 501 577 39,000  Level FlightAware Transoceanic
09:44AM 49.8390 -172.4928 83° East 501 577 39,000  Level FlightAware Transoceanic
09:45AM 49.8544 -172.2857 83° East 501 577 39,000  Level FlightAware Transoceanic
09:46AM 49.8695 -172.0785 84° East 501 577 39,000  Level FlightAware Transoceanic
09:47AM 49.8842 -171.8712 84° East 501 577 39,000  Level FlightAware Transoceanic
09:48AM 49.8986 -171.6637 84° East 501 577 39,000  Level FlightAware Transoceanic
09:49AM 49.9126 -171.4562 84° East 501 577 39,000  Level FlightAware Transoceanic
09:49AM 49.9167 -171.4000 84° East 497 572 39,000  Level Oakland Oceanic (ODAPS)
09:50AM 49.9262 -171.2485 84° East 501 577 39,000  Level FlightAware Transoceanic
09:51AM 49.9394 -171.0407 84° East 501 577 39,000  Level FlightAware Transoceanic
09:52AM 49.9523 -170.8327 85° East 501 577 39,000  Level FlightAware Transoceanic
09:53AM 49.9648 -170.6247 85° East 501 577 39,000  Level FlightAware Transoceanic
09:54AM 49.9769 -170.4166 85° East 501 577 39,000  Level FlightAware Transoceanic
09:55AM 49.9891 -170.2003 85° East 497 572 39,000  Level FlightAware Transoceanic
09:55AM 50.0000 -170.0000 95° East 498 573 39,000  Level Oakland Oceanic (ODAPS)
09:56AM 50.0000 -170.0000 95° East 497 572 39,000  Level FlightAware Transoceanic
09:57AM 49.9881 -169.7880 95° East 497 572 39,000  Level FlightAware Transoceanic
09:58AM 49.9757 -169.5762 95° East 497 572 39,000  Level FlightAware Transoceanic
09:59AM 49.9630 -169.3644 95° East 497 572 39,000  Level FlightAware Transoceanic
10:00AM 49.9499 -169.1528 96° East 497 572 39,000  Level FlightAware Transoceanic
10:01AM 49.9365 -168.9413 96° East 497 572 39,000  Level FlightAware Transoceanic
10:02AM 49.9208 -168.7029 96° East 498 573 39,000  Level FlightAware Transoceanic
10:03AM 49.9062 -168.4871 96° East 498 573 39,000  Level FlightAware Transoceanic
10:03AM 49.9000 -168.4500 96° East 497 572 39,000  Level Oakland Oceanic (ODAPS)
10:04AM 49.8912 -168.2715 96° East 498 573 39,000  Level FlightAware Transoceanic
10:05AM 49.8758 -168.0560 96° East 498 573 39,000  Level FlightAware Transoceanic
10:06AM 49.8600 -167.8407 97° East 498 573 39,000  Level FlightAware Transoceanic
10:07AM 49.8438 -167.6255 97° East 498 573 39,000  Level FlightAware Transoceanic
10:08AM 49.8272 -167.4104 97° East 498 573 39,000  Level FlightAware Transoceanic
10:09AM 49.8046 -167.1641 97° East 497 572 39,000  Level FlightAware Transoceanic
10:10AM 49.7873 -166.9503 97° East 497 572 39,000  Level FlightAware Transoceanic
10:11AM 49.7696 -166.7367 97° East 497 572 39,000  Level FlightAware Transoceanic
10:12AM 49.7515 -166.5232 98° East 497 572 39,000  Level FlightAware Transoceanic
10:13AM 49.7331 -166.3099 98° East 497 572 39,000  Level FlightAware Transoceanic
10:14AM 49.7142 -166.0967 98° East 497 572 39,000  Level FlightAware Transoceanic
10:15AM 49.6950 -165.8837 98° East 497 572 39,000  Level FlightAware Transoceanic
10:16AM 49.6753 -165.6709 98° East 497 572 39,000  Level FlightAware Transoceanic
10:17AM 49.6553 -165.4582 98° East 497 572 39,000  Level FlightAware Transoceanic
10:17AM 49.6667 -165.5333 98° East 496 571 39,000  Level Oakland Oceanic (ODAPS)
10:18AM 49.6349 -165.2458 99° East 497 572 39,000  Level FlightAware Transoceanic
10:19AM 49.6141 -165.0335 99° East 497 572 39,000  Level FlightAware Transoceanic
10:20AM 49.5929 -164.8214 99° East 497 572 39,000  Level FlightAware Transoceanic
10:21AM 49.5713 -164.6094 99° East 497 572 39,000  Level FlightAware Transoceanic
10:22AM 49.5494 -164.3977 99° East 497 572 39,000  Level FlightAware Transoceanic
10:23AM 49.5415 -164.2912 99° East 496 571 39,000  Level FlightAware Transoceanic
10:24AM 49.5193 -164.0848 99° East 496 571 39,000  Level FlightAware Transoceanic
10:25AM 49.4968 -163.8786 100° East 496 571 39,000  Level FlightAware Transoceanic
10:26AM 49.4739 -163.6725 100° East 496 571 39,000  Level FlightAware Transoceanic
10:27AM 49.4506 -163.4667 100° East 496 571 39,000  Level FlightAware Transoceanic
10:28AM 49.4270 -163.2611 100° East 496 571 39,000  Level FlightAware Transoceanic
10:29AM 49.4030 -163.0557 100° East 496 571 39,000  Level FlightAware Transoceanic
10:30AM 49.3787 -162.8504 100° East 496 571 39,000  Level FlightAware Transoceanic
10:30AM 49.3500 -162.6500 100° East 492 566 39,000  Level Oakland Oceanic (ODAPS)
10:31AM 49.3540 -162.6454 101° East 496 571 39,000  Level FlightAware Transoceanic
10:32AM 49.3289 -162.4406 101° East 496 571 39,000  Level FlightAware Transoceanic
10:33AM 49.3035 -162.2360 101° East 496 571 39,000  Level FlightAware Transoceanic
10:34AM 49.2776 -162.0316 101° East 496 571 39,000  Level FlightAware Transoceanic
10:35AM 49.2515 -161.8275 101° East 496 571 39,000  Level FlightAware Transoceanic
10:36AM 49.2250 -161.6235 101° East 496 571 39,000  Level FlightAware Transoceanic
10:37AM 49.1960 -161.4223 101° East 492 566 39,000  Level FlightAware Transoceanic
10:38AM 49.1691 -161.2184 102° East 492 566 39,000  Level FlightAware Transoceanic
10:39AM 49.1418 -161.0148 102° East 492 566 39,000  Level FlightAware Transoceanic
10:40AM 49.1141 -160.8114 102° East 492 566 39,000  Level FlightAware Transoceanic
10:41AM 49.0861 -160.6082 102° East 492 566 39,000  Level FlightAware Transoceanic
10:42AM 49.0578 -160.4052 102° East 492 566 39,000  Level FlightAware Transoceanic
10:43AM 49.0291 -160.2025 102° East 492 566 39,000  Level FlightAware Transoceanic
10:43AM 49.0000 -160.0000 110° East 501 577 39,000  Level Oakland Oceanic (ODAPS)
10:44AM 49.0000 -160.0000 110° East 492 566 39,000  Level FlightAware Transoceanic
10:44AM 48.9667 -159.8333 110° East 503 579 39,000  Level Oakland Oceanic (ODAPS)
10:45AM 48.9517 -159.8009 110° East 492 566 39,000  Level FlightAware Transoceanic
10:46AM 48.9031 -159.6021 110° East 492 566 39,000  Level FlightAware Transoceanic
10:47AM 48.8542 -159.4038 111° Southeast 492 566 39,000  Level FlightAware Transoceanic
10:48AM 48.8049 -159.2058 111° Southeast 492 566 39,000  Level FlightAware Transoceanic
10:49AM 48.7552 -159.0083 111° Southeast 492 566 39,000  Level FlightAware Transoceanic
10:50AM 48.7053 -158.8111 111° Southeast 501 577 39,000  Level FlightAware Transoceanic
10:51AM 48.6685 -158.6425 111° Southeast 503 579 39,000  Level FlightAware Transoceanic
10:52AM 48.6176 -158.4454 111° Southeast 503 579 39,000  Level FlightAware Transoceanic
10:53AM 48.5664 -158.2487 112° Southeast 503 579 39,000  Level FlightAware Transoceanic
10:54AM 48.5148 -158.0524 112° Southeast 503 579 39,000  Level FlightAware Transoceanic
10:54AM 48.4667 -157.9167 112° Southeast 503 579 39,000  Level Oakland Oceanic (ODAPS)
10:55AM 48.4629 -157.8565 112° Southeast 503 579 39,000  Level FlightAware Transoceanic
10:56AM 48.4107 -157.6611 112° Southeast 503 579 39,000  Level FlightAware Transoceanic
10:57AM 48.3581 -157.4660 112° Southeast 503 579 39,000  Level FlightAware Transoceanic
10:58AM 48.3053 -157.2713 112° Southeast 503 579 39,000  Level FlightAware Transoceanic
10:58AM 48.2667 -157.1667 112° Southeast 500 575 39,000  Level Oakland Oceanic (ODAPS)
10:59AM 48.2520 -157.0770 112° Southeast 503 579 39,000  Level FlightAware Transoceanic
11:00AM 48.1559 -156.7680 113° Southeast 503 579 39,000  Level FlightAware Transoceanic
11:01AM 48.1030 -156.5779 113° Southeast 503 579 39,000  Level FlightAware Transoceanic
11:02AM 48.0498 -156.3882 113° Southeast 503 579 39,000  Level FlightAware Transoceanic
11:03AM 47.9963 -156.1989 113° Southeast 503 579 39,000  Level FlightAware Transoceanic
11:04AM 47.9425 -156.0100 113° Southeast 503 579 39,000  Level FlightAware Transoceanic
11:05AM 47.8933 -155.8355 113° Southeast 500 575 39,000  Level FlightAware Transoceanic
11:06AM 47.8387 -155.6469 113° Southeast 500 575 39,000  Level FlightAware Transoceanic
11:07AM 47.7839 -155.4587 114° Southeast 500 575 39,000  Level FlightAware Transoceanic
11:08AM 47.7287 -155.2709 114° Southeast 500 575 39,000  Level FlightAware Transoceanic
11:09AM 47.6731 -155.0835 114° Southeast 500 575 39,000  Level FlightAware Transoceanic
11:10AM 47.6174 -154.8965 114° Southeast 500 575 39,000  Level FlightAware Transoceanic
11:11AM 47.5612 -154.7099 114° Southeast 500 575 39,000  Level FlightAware Transoceanic
11:12AM 47.5048 -154.5237 114° Southeast 500 575 39,000  Level FlightAware Transoceanic
11:12AM 47.5167 -154.5500 114° Southeast 499 574 39,000  Level Oakland Oceanic (ODAPS)
11:13AM 47.4481 -154.3380 114° Southeast 500 575 39,000  Level FlightAware Transoceanic
11:14AM 47.3911 -154.1526 115° Southeast 500 575 39,000  Level FlightAware Transoceanic
11:15AM 47.3338 -153.9676 115° Southeast 500 575 39,000  Level FlightAware Transoceanic
11:16AM 47.2762 -153.7830 115° Southeast 500 575 39,000  Level FlightAware Transoceanic
11:17AM 47.2183 -153.5988 115° Southeast 500 575 39,000  Level FlightAware Transoceanic
11:18AM 47.1693 -153.4346 115° Southeast 499 574 39,000  Level FlightAware Transoceanic
11:19AM 47.1103 -153.2502 115° Southeast 499 574 39,000  Level FlightAware Transoceanic
11:20AM 47.0511 -153.0661 115° Southeast 499 574 39,000  Level FlightAware Transoceanic
11:21AM 46.9916 -152.8825 116° Southeast 499 574 39,000  Level FlightAware Transoceanic
11:22AM 46.9317 -152.6993 116° Southeast 499 574 39,000  Level FlightAware Transoceanic
11:23AM 46.8716 -152.5164 116° Southeast 499 574 39,000  Level FlightAware Transoceanic
11:24AM 46.8112 -152.3340 116° Southeast 499 574 39,000  Level FlightAware Transoceanic
11:25AM 46.7505 -152.1520 116° Southeast 499 574 39,000  Level FlightAware Transoceanic
11:26AM 46.6895 -151.9704 116° Southeast 499 574 39,000 600 Level FlightAware Transoceanic
11:26AM 46.6833 -151.9667 116° Southeast 511 588 39,900  Climbing Oakland Oceanic (ODAPS)
11:27AM 46.6282 -151.7892 116° Southeast 499 574 39,000 -600 Descending FlightAware Transoceanic
11:28AM 46.5667 -151.6085 116° Southeast 499 574 39,000  Level FlightAware Transoceanic
11:29AM 46.5048 -151.4281 117° Southeast 499 574 39,000  Level FlightAware Transoceanic
11:30AM 46.4427 -151.2482 117° Southeast 499 574 39,000  Level FlightAware Transoceanic
11:31AM 46.3803 -151.0686 117° Southeast 499 574 39,000 420 Level FlightAware Transoceanic
11:32AM 46.3148 -150.8878 117° Southeast 511 588 39,900 420 Climbing FlightAware Transoceanic
11:33AM 46.2524 -150.7095 117° Southeast 511 588 39,900  Level FlightAware Transoceanic
11:34AM 46.1897 -150.5315 117° Southeast 511 588 39,900  Level FlightAware Transoceanic
11:35AM 46.1267 -150.3539 117° Southeast 511 588 39,900  Level FlightAware Transoceanic
11:36AM 46.0635 -150.1768 117° Southeast 511 588 39,900  Level FlightAware Transoceanic
11:37AM 46.0000 -150.0000 109° East 511 588 39,900 60 Level FlightAware Transoceanic
11:37AM 46.0000 -150.0000 109° East 515 593 40,000  Climbing Oakland Oceanic (ODAPS)
11:38AM 45.9535 -149.8091 109° East 511 588 39,900 -60 Descending FlightAware Transoceanic
11:39AM 45.9067 -149.6186 110° East 511 588 39,900  Level FlightAware Transoceanic
11:40AM 45.8596 -149.4283 110° East 511 588 39,900 60 Level FlightAware Transoceanic
11:40AM 45.8500 -149.3833 110° East 520 598 40,000  Climbing Oakland Oceanic (ODAPS)
11:41AM 45.8121 -149.2384 110° East 511 588 39,900 -60 Descending FlightAware Transoceanic
11:42AM 45.7644 -149.0489 110° East 511 588 39,900  Level FlightAware Transoceanic
11:43AM 45.7109 -148.8386 110° East 515 593 40,000  Climbing FlightAware Transoceanic
11:44AM 45.6616 -148.6462 110° East 515 593 40,000  Level FlightAware Transoceanic
11:45AM 45.6120 -148.4542 110° East 515 593 40,000  Level FlightAware Transoceanic
11:46AM 45.5556 -148.2323 111° Southeast 520 598 40,000  Level FlightAware Transoceanic
11:47AM 45.5054 -148.0417 111° Southeast 520 598 40,000  Level FlightAware Transoceanic
11:48AM 45.4549 -147.8514 111° Southeast 520 598 40,000  Level FlightAware Transoceanic
11:49AM 45.4041 -147.6614 111° Southeast 520 598 40,000  Level FlightAware Transoceanic
11:50AM 45.3530 -147.4718 111° Southeast 520 598 40,000  Level FlightAware Transoceanic
11:51AM 45.3015 -147.2825 111° Southeast 520 598 40,000  Level FlightAware Transoceanic
11:52AM 45.2498 -147.0936 111° Southeast 520 598 40,000  Level FlightAware Transoceanic
11:53AM 45.1977 -146.9050 111° Southeast 520 598 40,000  Level FlightAware Transoceanic
11:54AM 45.1453 -146.7168 112° Southeast 520 598 40,000  Level FlightAware Transoceanic
11:54AM 45.1500 -146.7500 112° Southeast 515 593 40,000  Level Oakland Oceanic (ODAPS)
11:55AM 45.0926 -146.5289 112° Southeast 520 598 40,000  Level FlightAware Transoceanic
11:56AM 45.0396 -146.3413 112° Southeast 520 598 40,000  Level FlightAware Transoceanic
11:57AM 44.9863 -146.1541 112° Southeast 520 598 40,000  Level FlightAware Transoceanic
11:58AM 44.9327 -145.9672 112° Southeast 520 598 40,000  Level FlightAware Transoceanic
11:59AM 44.8788 -145.7807 112° Southeast 520 598 40,000  Level FlightAware Transoceanic
12:00PM 44.8288 -145.6222 112° Southeast 515 593 40,000  Level FlightAware Transoceanic
12:01PM 44.7742 -145.4355 112° Southeast 515 593 40,000  Level FlightAware Transoceanic
12:02PM 44.7193 -145.2491 113° Southeast 515 593 40,000  Level FlightAware Transoceanic
12:03PM 44.6641 -145.0631 113° Southeast 515 593 40,000  Level FlightAware Transoceanic
12:04PM 44.6086 -144.8774 113° Southeast 515 593 40,000  Level FlightAware Transoceanic
12:05PM 44.5527 -144.6921 113° Southeast 515 593 40,000  Level FlightAware Transoceanic
12:06PM 44.4966 -144.5071 113° Southeast 515 593 40,000  Level FlightAware Transoceanic
12:07PM 44.4402 -144.3225 113° Southeast 515 593 40,000  Level FlightAware Transoceanic
12:07PM 44.4000 -144.1667 113° Southeast 522 601 40,000  Level Oakland Oceanic (ODAPS)
12:08PM 44.3835 -144.1383 113° Southeast 515 593 40,000  Level FlightAware Transoceanic
12:09PM 44.3265 -143.9544 114° Southeast 515 593 40,000  Level FlightAware Transoceanic
12:10PM 44.2692 -143.7709 114° Southeast 515 593 40,000  Level FlightAware Transoceanic
12:11PM 44.2116 -143.5877 114° Southeast 515 593 40,000  Level FlightAware Transoceanic
12:12PM 44.1537 -143.4049 114° Southeast 515 593 40,000  Level FlightAware Transoceanic
12:13PM 44.0956 -143.2224 114° Southeast 515 593 40,000  Level FlightAware Transoceanic
12:14PM 44.0495 -143.0610 114° Southeast 522 601 40,000  Level FlightAware Transoceanic
12:15PM 43.9900 -142.8780 114° Southeast 522 601 40,000  Level FlightAware Transoceanic
12:16PM 43.9303 -142.6953 115° Southeast 522 601 40,000  Level FlightAware Transoceanic
12:17PM 43.8703 -142.5131 115° Southeast 522 601 40,000  Level FlightAware Transoceanic
12:18PM 43.8099 -142.3312 115° Southeast 522 601 40,000  Level FlightAware Transoceanic
12:19PM 43.7493 -142.1496 115° Southeast 522 601 40,000  Level FlightAware Transoceanic
12:20PM 43.6884 -141.9685 115° Southeast 522 601 40,000  Level FlightAware Transoceanic
12:21PM 43.6273 -141.7877 115° Southeast 522 601 40,000  Level FlightAware Transoceanic
12:22PM 43.5658 -141.6072 115° Southeast 522 601 40,000  Level FlightAware Transoceanic
12:23PM 43.5040 -141.4272 115° Southeast 522 601 40,000  Level FlightAware Transoceanic
12:24PM 43.4420 -141.2475 116° Southeast 522 601 40,000  Level FlightAware Transoceanic
12:25PM 43.3797 -141.0682 116° Southeast 522 601 40,000  Level FlightAware Transoceanic
12:25PM 43.3667 -141.0500 115° Southeast 527 606 40,000  Level Oakland Oceanic (ODAPS)
12:26PM 43.3171 -140.8892 116° Southeast 522 601 40,000  Level FlightAware Transoceanic
12:27PM 43.2542 -140.7106 116° Southeast 522 601 40,000  Level FlightAware Transoceanic
12:28PM 43.1911 -140.5324 116° Southeast 522 601 40,000  Level FlightAware Transoceanic
12:29PM 43.1277 -140.3546 116° Southeast 522 601 40,000  Level FlightAware Transoceanic
12:30PM 43.0640 -140.1771 116° Southeast 522 601 40,000  Level FlightAware Transoceanic
12:31PM 43.0000 -140.0000 108° East 527 606 40,000  Level FlightAware Transoceanic
12:32PM 42.9551 -139.8167 109° East 527 606 40,000  Level FlightAware Transoceanic
12:33PM 42.9099 -139.6337 109° East 527 606 40,000  Level FlightAware Transoceanic
12:34PM 42.8644 -139.4509 109° East 527 606 40,000  Level FlightAware Transoceanic
12:35PM 42.8186 -139.2684 109° East 527 606 40,000  Level FlightAware Transoceanic
12:36PM 42.7725 -139.0862 109° East 527 606 40,000  Level FlightAware Transoceanic
12:37PM 42.7261 -138.9043 109° East 527 606 40,000  Level FlightAware Transoceanic
12:38PM 42.6794 -138.7226 109° East 527 606 40,000  Level FlightAware Transoceanic
12:39PM 42.6325 -138.5412 109° East 527 606 40,000  Level FlightAware Transoceanic
12:40PM 42.5853 -138.3600 110° East 527 606 40,000  Level FlightAware Transoceanic
12:41PM 42.5377 -138.1792 110° East 527 606 40,000  Level FlightAware Transoceanic
12:41PM 42.4833 -137.9833 110° East 516 594 40,000  Level Oakland Oceanic (ODAPS)
12:42PM 42.4899 -137.9986 110° East 527 606 40,000  Level FlightAware Transoceanic
12:43PM 42.4418 -137.8183 110° East 527 606 40,000  Level FlightAware Transoceanic
12:44PM 42.3935 -137.6383 110° East 527 606 40,000  Level FlightAware Transoceanic
12:45PM 42.3448 -137.4585 110° East 527 606 40,000  Level FlightAware Transoceanic
12:46PM 42.2959 -137.2791 110° East 527 606 40,000  Level FlightAware Transoceanic
12:47PM 42.2352 -137.0665 110° East 516 594 40,000  Level FlightAware Transoceanic
12:48PM 42.1847 -136.8841 111° Southeast 516 594 40,000  Level FlightAware Transoceanic
12:49PM 42.1339 -136.7019 111° Southeast 516 594 40,000  Level FlightAware Transoceanic
12:50PM 42.0829 -136.5200 111° Southeast 516 594 40,000  Level FlightAware Transoceanic
12:51PM 42.0315 -136.3384 111° Southeast 516 594 40,000  Level FlightAware Transoceanic
12:52PM 41.9799 -136.1571 111° Southeast 516 594 40,000  Level FlightAware Transoceanic
12:53PM 41.9280 -135.9760 111° Southeast 516 594 40,000  Level FlightAware Transoceanic
12:54PM 41.8757 -135.7953 111° Southeast 516 594 40,000  Level FlightAware Transoceanic
12:55PM 41.8232 -135.6149 111° Southeast 516 594 40,000  Level FlightAware Transoceanic
12:55PM 41.7667 -135.4333 111° Southeast 516 594 40,000  Level Oakland Oceanic (ODAPS)
12:56PM 41.7705 -135.4348 112° Southeast 516 594 40,000  Level FlightAware Transoceanic
12:57PM 41.7174 -135.2549 112° Southeast 516 594 40,000  Level FlightAware Transoceanic
12:58PM 41.6641 -135.0754 112° Southeast 516 594 40,000  Level FlightAware Transoceanic
12:59PM 41.6105 -134.8961 112° Southeast 516 594 40,000  Level FlightAware Transoceanic
01:00PM 41.5566 -134.7172 112° Southeast 516 594 40,000  Level FlightAware Transoceanic
01:01PM 41.4551 -134.3925 112° Southeast 516 594 40,000  Level FlightAware Transoceanic
01:02PM 41.4022 -134.2201 112° Southeast 516 594 40,000  Level FlightAware Transoceanic
01:03PM 41.3491 -134.0479 112° Southeast 516 594 40,000  Level FlightAware Transoceanic
01:04PM 41.2958 -133.8759 113° Southeast 516 594 40,000  Level FlightAware Transoceanic
01:04PM 41.3167 -133.9167 113° Southeast 510 587 40,000  Level Oakland Oceanic (ODAPS)
01:05PM 41.2422 -133.7043 113° Southeast 516 594 40,000  Level FlightAware Transoceanic
01:06PM 41.1883 -133.5329 113° Southeast 516 594 40,000  Level FlightAware Transoceanic
01:07PM 41.1342 -133.3619 113° Southeast 516 594 40,000  Level FlightAware Transoceanic
01:08PM 41.0798 -133.1911 113° Southeast 516 594 40,000  Level FlightAware Transoceanic
01:09PM 41.0252 -133.0206 113° Southeast 516 594 40,000  Level FlightAware Transoceanic
01:10PM 40.9860 -132.8800 113° Southeast 510 587 40,000  Level FlightAware Transoceanic
01:11PM 40.9300 -132.7083 113° Southeast 510 587 40,000  Level FlightAware Transoceanic
01:12PM 40.8738 -132.5368 114° Southeast 510 587 40,000  Level FlightAware Transoceanic
01:13PM 40.8173 -132.3656 114° Southeast 510 587 40,000  Level FlightAware Transoceanic
01:14PM 40.7605 -132.1948 114° Southeast 510 587 40,000  Level FlightAware Transoceanic
01:15PM 40.7035 -132.0242 114° Southeast 510 587 40,000  Level FlightAware Transoceanic
01:16PM 40.6462 -131.8539 114° Southeast 510 587 40,000  Level FlightAware Transoceanic
01:17PM 40.5887 -131.6839 114° Southeast 510 587 40,000  Level FlightAware Transoceanic
01:18PM 40.5309 -131.5142 114° Southeast 510 587 40,000 900 Level FlightAware Transoceanic
01:18PM 40.5333 -131.5500 114° Southeast 515 593 41,000  Climbing Oakland Oceanic (ODAPS)
01:19PM 40.4729 -131.3448 114° Southeast 510 587 40,000 -540 Descending FlightAware Transoceanic
01:20PM 40.4147 -131.1756 114° Southeast 510 587 40,000  Level FlightAware Transoceanic
01:21PM 40.3562 -131.0068 115° Southeast 510 587 40,000  Level FlightAware Transoceanic
01:22PM 40.2974 -130.8383 115° Southeast 510 587 40,000  Level FlightAware Transoceanic
01:23PM 40.2384 -130.6700 115° Southeast 510 587 40,000 480 Level FlightAware Transoceanic
01:24PM 40.1801 -130.5139 114° Southeast 515 593 41,000 480 Climbing FlightAware Transoceanic
01:25PM 40.1203 -130.3423 115° Southeast 515 593 41,000  Level FlightAware Transoceanic
01:26PM 40.0603 -130.1710 115° Southeast 515 593 41,000  Level FlightAware Transoceanic
01:27PM 40.0000 -130.0000 122° Southeast 515 593 41,000  Level FlightAware Transoceanic
01:27PM 40.0000 -130.0000 122° Southeast 512 589 41,000  Level Oakland Oceanic (ODAPS)
01:28PM 39.9252 -129.8469 123° Southeast 515 593 41,000  Level FlightAware Transoceanic
01:29PM 39.8502 -129.6941 123° Southeast 515 593 41,000  Level FlightAware Transoceanic
01:30PM 39.7750 -129.5416 123° Southeast 515 593 41,000  Level FlightAware Transoceanic
01:31PM 39.6996 -129.3895 123° Southeast 515 593 41,000  Level FlightAware Transoceanic
01:31PM 39.6500 -129.2667 123° Southeast 509 586 41,000  Level Oakland Oceanic (ODAPS)
01:32PM 39.6239 -129.2377 123° Southeast 515 593 41,000  Level FlightAware Transoceanic
01:33PM 39.5481 -129.0862 123° Southeast 512 589 41,000  Level FlightAware Transoceanic
01:34PM 39.4721 -128.9350 123° Southeast 512 589 41,000  Level FlightAware Transoceanic
01:35PM 39.3959 -128.7842 123° Southeast 512 589 41,000  Level FlightAware Transoceanic
01:36PM 39.3195 -128.6338 123° Southeast 512 589 41,000  Level FlightAware Transoceanic
01:37PM 39.2430 -128.4836 123° Southeast 512 589 41,000  Level FlightAware Transoceanic
01:37PM 39.2333 -128.4833 123° Southeast 509 586 41,000  Level Oakland Oceanic (ODAPS)
01:38PM 39.1819 -128.3509 124° Southeast 509 586 41,000  Level FlightAware Transoceanic
01:39PM 39.1032 -128.1994 124° Southeast 509 586 41,000  Level FlightAware Transoceanic
01:40PM 39.0243 -128.0483 124° Southeast 509 586 41,000  Level FlightAware Transoceanic
01:41PM 38.9453 -127.8976 124° Southeast 509 586 41,000  Level FlightAware Transoceanic
01:42PM 38.8660 -127.7471 124° Southeast 509 586 41,000  Level FlightAware Transoceanic
01:43PM 38.7756 -127.5895 124° Southeast 509 586 41,000  Level FlightAware Transoceanic
01:44PM 38.6986 -127.4417 124° Southeast 509 586 41,000  Level FlightAware Transoceanic
01:44PM 38.6881 -127.4367 111° Southeast 508 585 41,000  Level Oakland Center
01:45PM 38.6215 -127.2941 124° Southeast 509 586 41,000 -120 Level FlightAware Transoceanic
01:45PM 38.5975 -127.2556 123° Southeast 506 582 40,900  Descending Oakland Center
01:45PM 38.5667 -127.1667 127° Southeast 511 588 41,000 120 Climbing Oakland Oceanic (ODAPS)
01:46PM 38.5442 -127.1469 124° Southeast 509 586 41,000  Level FlightAware Transoceanic
01:47PM 38.4667 -127.0000 111° Southeast 509 586 41,000  Level FlightAware Transoceanic
01:48PM 38.4158 -126.8324 111° Southeast 509 586 41,000  Level FlightAware Transoceanic
01:49PM 38.3646 -126.6650 111° Southeast 509 586 41,000  Level FlightAware Transoceanic
01:51PM 38.2130 -126.2790 127° Southeast 512 589 41,000  Level FlightAware
01:51PM 38.1800 -126.1890 115° Southeast 512 589 41,000  Level FlightAware
01:52PM 38.1480 -126.1020 115° Southeast 512 589 41,000  Level FlightAware
01:52PM 38.1130 -126.0090 116° Southeast 511 588 41,000  Level FlightAware
01:53PM 38.0700 -125.8940 115° Southeast 509 586 41,000  Level FlightAware
01:54PM 38.0360 -125.8020 115° Southeast 509 586 41,000  Level FlightAware
01:54PM 38.0020 -125.7100 115° Southeast 510 587 41,000  Level FlightAware
01:55PM 37.9690 -125.6220 115° Southeast 511 588 41,000  Level FlightAware
01:55PM 37.9370 -125.5390 116° Southeast 510 587 41,000  Level FlightAware
01:56PM 37.8940 -125.4260 116° Southeast 511 588 41,000  Level FlightAware
01:57PM 37.8600 -125.3340 115° Southeast 512 589 41,000  Level FlightAware
01:57PM 37.8250 -125.2430 116° Southeast 511 588 41,000  Level FlightAware
01:58PM 37.7880 -125.1450 116° Southeast 509 586 41,000  Level FlightAware
01:58PM 37.7540 -125.0570 116° Southeast 510 587 41,000  Level FlightAware
01:59PM 37.7160 -124.9580 116° Southeast 510 587 41,000  Level FlightAware
01:59PM 37.6860 -124.8780 115° Southeast 510 587 41,000  Level FlightAware
02:00PM 37.6460 -124.7740 116° Southeast 511 588 41,000  Level FlightAware
02:01PM 37.6150 -124.6940 116° Southeast 510 587 41,000  Level FlightAware
02:01PM 37.5800 -124.6050 116° Southeast 507 583 41,000  Level FlightAware
02:02PM 37.5450 -124.5140 116° Southeast 506 582 41,000  Level FlightAware
02:02PM 37.5080 -124.4200 116° Southeast 505 581 41,000  Level FlightAware
02:03PM 37.4720 -124.3290 116° Southeast 504 580 41,000  Level FlightAware
02:03PM 37.4380 -124.2410 116° Southeast 502 578 41,000  Level FlightAware
02:04PM 37.3980 -124.1390 116° Southeast 500 575 41,000  Level FlightAware
02:05PM 37.3520 -124.0220 116° Southeast 500 575 41,000  Level FlightAware
02:06PM 37.3070 -123.9110 117° Southeast 499 574 41,000  Level FlightAware
02:06PM 37.2680 -123.8120 116° Southeast 499 574 41,000  Level FlightAware
02:07PM 37.2350 -123.7290 117° Southeast 500 575 41,000  Level FlightAware
02:07PM 37.1980 -123.6360 117° Southeast 500 575 41,000  Level FlightAware
02:08PM 37.1620 -123.5480 117° Southeast 499 574 41,000  Level FlightAware
02:08PM 37.1230 -123.4500 117° Southeast 499 574 41,000  Level FlightAware
02:09PM 37.0920 -123.3730 117° Southeast 499 574 41,000  Level FlightAware
02:10PM 37.0520 -123.2740 117° Southeast 499 574 41,000  Level FlightAware
02:10PM 37.0140 -123.1810 117° Southeast 500 575 41,000  Level FlightAware
02:11PM 36.9770 -123.0900 117° Southeast 501 577 41,000  Level FlightAware
02:11PM 36.9410 -123.0000 117° Southeast 500 575 41,000  Level FlightAware
02:12PM 36.9040 -122.9100 117° Southeast 499 574 41,000  Level FlightAware
02:12PM 36.8730 -122.8340 117° Southeast 498 573 41,000  Level FlightAware
02:13PM 36.8320 -122.7360 118° Southeast 497 572 41,000  Level FlightAware
02:14PM 36.7940 -122.6440 117° Southeast 496 571 41,000  Level FlightAware
02:14PM 36.7590 -122.5580 117° Southeast 497 572 41,000  Level FlightAware
02:15PM 36.7230 -122.4710 117° Southeast 499 574 41,000  Level FlightAware
02:15PM 36.6840 -122.3780 118° Southeast 500 575 41,000  Level FlightAware
02:16PM 36.6460 -122.2860 117° Southeast 502 578 41,000  Level FlightAware
02:17PM 36.6021 -122.1820 118° Southeast 501 577 41,000  Level FlightAware ADS-B
02:17PM 36.5640 -122.0920 118° Southeast 501 577 41,000  Level FlightAware
02:18PM 36.5260 -122.0000 117° Southeast 504 580 41,000  Level FlightAware
02:18PM 36.4910 -121.9190 118° Southeast 505 581 41,000  Level FlightAware
02:19PM 36.4530 -121.8290 118° Southeast 505 581 41,000  Level FlightAware
02:20PM 36.4140 -121.7370 118° Southeast 496 571 41,000  Level FlightAware
02:20PM 36.3740 -121.6420 118° Southeast 481 554 41,000  Level FlightAware
02:21PM 36.3410 -121.5640 118° Southeast 474 545 41,000  Level FlightAware
02:21PM 36.3090 -121.4900 118° Southeast 469 540 41,000  Level FlightAware
02:22PM 36.2700 -121.3980 118° Southeast 471 542 41,000  Level FlightAware
02:23PM 36.2340 -121.3140 118° Southeast 472 543 41,000 -360 Level FlightAware
02:23PM 36.1892 -121.2120 119° Southeast 477 549 40,600 -780 Descending FlightAware ADS-B
02:24PM 36.1406 -121.0990 118° Southeast 471 542 39,900 -1,020 Descending FlightAware ADS-B
02:25PM 36.0930 -120.9900 118° Southeast 455 524 39,000 -660 Descending FlightAware
02:25PM 36.0550 -120.9030 118° Southeast 454 522 39,000  Level FlightAware
02:26PM 36.0210 -120.8230 118° Southeast 462 532 39,000  Level FlightAware
02:27PM 35.9870 -120.7460 119° Southeast 465 535 39,000  Level FlightAware
02:27PM 35.9490 -120.6600 119° Southeast 468 539 39,000  Level FlightAware
02:28PM 35.9110 -120.5720 118° Southeast 467 537 39,000  Level FlightAware
02:28PM 35.8760 -120.4930 119° Southeast 465 535 39,000  Level FlightAware
02:29PM 35.8410 -120.4140 119° Southeast 467 537 39,000  Level FlightAware
02:30PM 35.8070 -120.3390 119° Southeast 471 542 39,000  Level FlightAware
02:30PM 35.7690 -120.2530 119° Southeast 474 545 39,000  Level FlightAware
02:31PM 35.7250 -120.1540 119° Southeast 472 543 39,000  Level FlightAware
02:31PM 35.6940 -120.0840 119° Southeast 473 544 39,000  Level FlightAware
02:32PM 35.6560 -119.9950 118° Southeast 473 544 39,000  Level FlightAware
02:33PM 35.6230 -119.9210 119° Southeast 473 544 39,000  Level FlightAware
02:33PM 35.5920 -119.8480 118° Southeast 473 544 39,000  Level FlightAware
02:34PM 35.5600 -119.7750 118° Southeast 473 544 39,000  Level FlightAware
02:34PM 35.5290 -119.7030 118° Southeast 473 544 39,000  Level FlightAware
02:35PM 35.4890 -119.6100 118° Southeast 473 544 39,000  Level FlightAware
02:36PM 35.4570 -119.5370 118° Southeast 473 544 39,000  Level FlightAware
02:37PM 35.4140 -119.4380 118° Southeast 473 544 39,000 -7,800 Level FlightAware
02:37PM 35.1330 -119.5370 196° South 465 535 30,200 -11,580 Descending FlightAware
02:37PM 35.0770 -119.4890 145° Southeast 460 529 29,200 -1,920 Descending FlightAware
02:38PM 35.0160 -119.4360 145° Southeast 453 521 28,100 -1,980 Descending FlightAware
02:39PM 34.9550 -119.3850 146° Southeast 441 507 26,900 -1,920 Descending FlightAware
02:39PM 34.8940 -119.3330 145° Southeast 430 495 25,800 -1,740 Descending FlightAware
02:40PM 34.8370 -119.2850 145° Southeast 427 491 24,700 -840 Descending FlightAware
02:41PM 34.7810 -119.2370 145° Southeast 427 491 24,700  Level FlightAware
02:41PM 34.7300 -119.1940 145° Southeast 427 491 24,700  Level FlightAware
02:42PM 34.6800 -119.1520 145° Southeast 427 491 24,700  Level FlightAware
02:43PM 34.6300 -119.1080 144° Southeast 427 491 24,700  Level FlightAware
02:43PM 34.5800 -119.0660 145° Southeast 427 491 24,700 -4,740 Level FlightAware
02:44PM 34.4610 -118.9680 146° Southeast 388 447 17,800 -5,520 Descending FlightAware
02:45PM 34.3880 -118.9070 145° Southeast 368 423 15,600 -1,740 Descending FlightAware
02:45PM 34.3330 -118.8680 150° Southeast 363 418 15,200 -1,800 Descending FlightAware
02:46PM 34.2680 -118.8490 166° South 344 396 13,300 -1,860 Descending FlightAware
02:47PM 34.2260 -118.8330 163° South 343 395 13,100 -1,140 Descending FlightAware
02:47PM 34.1650 -118.8110 163° South 321 369 12,000 -1,500 Descending FlightAware
02:48PM 34.1140 -118.7920 163° South 316 364 11,300 -1,320 Descending FlightAware
02:48PM 34.0800 -118.7800 164° South 312 359 10,700 -1,020 Descending FlightAware
02:49PM 34.0450 -118.7470 142° Southeast 303 349 10,400 -600 Descending FlightAware
02:49PM 34.0370 -118.7290 118° Southeast 301 346 10,300 -480 Descending FlightAware
02:49PM 34.0340 -118.7070 99° East 301 346 10,200 -600 Descending FlightAware
02:50PM 34.0290 -118.6580 97° East 289 333 9,900 -600 Descending FlightAware
02:50PM 34.0270 -118.6380 97° East 288 331 9,800 -540 Descending FlightAware
02:50PM 34.0240 -118.6060 96° East 288 331 9,600 -900 Descending FlightAware
02:51PM 34.0210 -118.5740 96° East 285 328 9,200 -1,260 Descending FlightAware
02:51PM 34.0180 -118.5360 95° East 285 328 8,700 -1,260 Descending FlightAware
02:51PM 34.0150 -118.5040 96° East 284 327 8,300 -1,140 Descending FlightAware
02:52PM 34.0130 -118.4840 97° East 281 323 8,100 -1,320 Descending FlightAware
02:52PM 34.0110 -118.4610 96° East 283 326 7,700 -1,200 Descending FlightAware
02:52PM 34.0150 -118.4250 82° East 272 313 7,300 -1,140 Descending FlightAware
02:53PM 34.0190 -118.3950 81° East 256 295 6,900 -1,500 Descending FlightAware
02:53PM 34.0220 -118.3750 80° East 238 274 6,500 -1,200 Descending FlightAware
02:53PM 34.0250 -118.3500 82° East 218 251 6,200 -1,200 Descending FlightAware
02:54PM 34.0290 -118.3220 80° East 205 236 5,600 -1,680 Descending FlightAware
02:54PM 34.0320 -118.3050 78° East 203 234 5,100 -1,800 Descending FlightAware
02:54PM 34.0340 -118.2900 81° East 201 231 4,700 -1,680 Descending FlightAware
02:54PM 34.0370 -118.2620 83° East 199 229 4,000 -1,320 Descending FlightAware
02:55PM 34.0410 -118.2290 82° East 195 224 3,500 -900 Descending FlightAware
02:55PM 34.0440 -118.2060 81° East 195 224 3,200 -960 Descending FlightAware
02:56PM 34.0460 -118.1810 84° East 191 220 2,800 -840 Descending FlightAware
02:56PM 34.0380 -118.1590 114° Southeast 189 217 2,600 -420 Descending FlightAware
02:56PM 34.0350 -118.1570 151° Southeast 188 216 2,600  Level FlightAware
02:56PM 34.0250 -118.1540 166° South 187 215 2,600  Level FlightAware
02:57PM 34.0130 -118.1520 172° South 189 217 2,600  Level FlightAware
02:57PM 33.9930 -118.1620 203° Southwest 188 216 2,600  Level FlightAware
02:57PM 33.9880 -118.1700 233° Southwest 189 217 2,600  Level FlightAware
02:58PM 33.9750 -118.1930 236° Southwest 187 215 2,600  Level FlightAware
02:58PM 33.9740 -118.1960 248° West 189 217 2,600  Level FlightAware
02:58PM 33.9720 -118.2080 259° West 190 219 2,600  Level FlightAware
02:58PM 33.9700 -118.2300 264° West 193 222 2,600 -180 Level FlightAware
02:59PM 33.9670 -118.2520 261° West 193 222 2,500 -600 Descending FlightAware
02:59PM 33.9660 -118.2670 265° West 189 217 2,300 -960 Descending FlightAware
02:59PM 33.9630 -118.2920 262° West 185 213 1,900 -1,020 Descending FlightAware
03:00PM 33.9610 -118.3160 264° West 165 190 1,500 -960 Descending FlightAware
03:00PM 33.9590 -118.3340 262° West 144 166 1,200 -720 Descending FlightAware
03:00PM 33.9570 -118.3490 261° West 141 162 1,000 -720 Descending FlightAware
03:01PM 33.9560 -118.3670 266° West 139 160 700 -720 Descending FlightAware
03:01PM 33.9540 -118.3830 261° West 139 160 500 -360 Descending FlightAware
03:02PM 33.9520 -118.4070 264° West 138 159 400 -180 Descending FlightAware